Flight Track Log - Related Links

Times and Time Zones

All times are in EDT time to prevent confusion due to time zone crossing. See the AFL150 flight status page for this flight to view local times or setup timezone preferences in your user account.

Time Position Orientation Groundspeed Altitude Reporting Facility
EDT Latitude Longitude Course Direction KTS MPH feet Rate Location/Type
Mon 06:19:00 AM 56.1044 36.9430 307° West  Level Estimated
Mon 06:20:00 AM 56.1787 36.7618 306° West  Level Estimated
Mon 06:21:00 AM 56.2528 36.5798 306° West  Level Estimated
Mon 06:22:00 AM 56.3266 36.3972 306° West  Level Estimated
Mon 06:23:00 AM 56.4001 36.2138 306° West  Level Estimated
Mon 06:24:00 AM 56.4734 36.0297 306° West  Level Estimated
Mon 06:25:00 AM 56.5464 35.8450 306° West  Level Estimated
Mon 06:26:00 AM 56.6191 35.6595 306° West  Level Estimated
Mon 06:27:00 AM 56.6916 35.4733 305° West  Level Estimated
Mon 06:28:00 AM 56.7637 35.2863 305° West  Level Estimated
Mon 06:29:00 AM 56.8356 35.0987 305° West  Level Estimated
Mon 06:30:00 AM 56.9072 34.9103 305° West  Level Estimated
Mon 06:31:00 AM 56.9785 34.7212 305° West  Level Estimated
Mon 06:32:00 AM 57.0495 34.5314 305° West  Level Estimated
Mon 06:33:00 AM 57.1203 34.3409 304° West  Level Estimated
Mon 06:34:00 AM 57.1908 34.1496 304° West  Level Estimated
Mon 06:35:00 AM 57.2609 33.9576 304° West  Level Estimated
Mon 06:36:00 AM 57.3308 33.7649 304° West  Level Estimated
Mon 06:37:00 AM 57.4003 33.5715 304° West  Level Estimated
Mon 06:38:00 AM 57.4696 33.3773 304° West  Level Estimated
Mon 06:39:00 AM 57.5386 33.1823 303° West  Level Estimated
Mon 06:40:00 AM 57.6073 32.9867 303° West  Level Estimated
Mon 06:41:00 AM 57.6756 32.7903 303° West  Level Estimated
Mon 06:42:00 AM 57.7437 32.5931 303° West  Level Estimated
Mon 06:42:46 AM 56.4572 32.1819 279° West 472 543 36,000  Level FlightAware ADS-B
Mon 06:43:47 AM 56.4770 31.9644 279° West 468 539 36,000  Level FlightAware ADS-B
Mon 06:44:54 AM 56.5008 31.6950 279° West 461 531 36,000  Level FlightAware ADS-B
Mon 06:45:57 AM 56.5218 31.4532 279° West 457 526 36,000  Level FlightAware ADS-B
Mon 06:46:58 AM 56.5472 31.2223 287° West 458 527 36,000  Level FlightAware ADS-B
Mon 06:47:58 AM 56.5955 31.0113 299° West 458 527 36,000  Level FlightAware ADS-B
Mon 06:48:59 AM 56.6723 30.8114 310° West 458 527 36,000  Level FlightAware ADS-B
Mon 06:50:00 AM 56.7496 30.6313 304° West 454 522 36,000  Level FlightAware ADS-B
Mon 06:51:01 AM 56.8182 30.4509 304° West 451 519 36,000  Level FlightAware ADS-B
Mon 06:52:06 AM 56.8916 30.2524 304° West 448 516 36,000  Level FlightAware ADS-B
Mon 06:53:11 AM 56.9727 30.0309 304° West 449 517 36,000  Level FlightAware ADS-B
Mon 06:54:12 AM 57.0426 29.8382 304° West 449 517 36,000  Level FlightAware ADS-B
Mon 06:55:14 AM 57.1060 29.6620 304° West 446 513 36,000  Level FlightAware ADS-B
Mon 06:56:14 AM 57.1805 29.4532 303° West 444 511 36,000  Level FlightAware ADS-B
Mon 06:57:13 AM 57.2471 29.2655 303° West 444 511 36,000  Level FlightAware ADS-B
Mon 06:58:14 AM 57.3148 29.0729 303° West 443 510 36,000  Level FlightAware ADS-B
Mon 06:59:14 AM 57.3698 28.9156 303° West 445 512 36,000  Level FlightAware ADS-B
Mon 07:00:12 AM 57.4448 28.6995 303° West 442 509 36,000  Level FlightAware ADS-B
Mon 07:01:13 AM 57.5125 28.5023 302° West 441 507 36,000  Level FlightAware ADS-B
Mon 07:02:14 AM 57.5756 28.3173 302° West 441 507 36,000  Level FlightAware ADS-B
Mon 07:02:50 AM 57.6118 28.2107 302° West 441 507 36,000  Level FlightAware ADS-B
Mon 07:03:29 AM 57.6542 28.0850 302° West 440 506 36,000  Level FlightAware ADS-B
Mon 07:04:14 AM 57.7077 27.9257 302° West 439 505 36,000  Level FlightAware ADS-B
Mon 07:05:14 AM 57.7712 27.7351 302° West 437 503 36,000  Level FlightAware ADS-B
Mon 07:06:14 AM 57.8337 27.5439 298° West 434 499 36,000  Level FlightAware ADS-B
Mon 07:07:14 AM 57.8771 27.3309 291° West 430 495 36,000  Level FlightAware ADS-B
Mon 07:08:30 AM 57.9295 27.0708 291° West 429 494 36,000  Level FlightAware ADS-B
Mon 07:09:30 AM 57.9716 26.8605 290° West 427 491 36,000  Level FlightAware ADS-B
Mon 07:10:30 AM 58.0121 26.6552 290° West 423 487 36,000  Level FlightAware ADS-B
Mon 07:11:29 AM 58.0517 26.4524 290° West 422 486 36,000  Level FlightAware ADS-B
Mon 07:12:29 AM 58.0908 26.2507 290° West 423 487 36,000  Level FlightAware ADS-B
Mon 07:13:29 AM 58.1314 26.0381 290° West 424 488 36,000  Level FlightAware ADS-B
Mon 07:14:03 AM 58.1549 25.9143 290° West 424 488 36,000  Level FlightAware ADS-B
Mon 07:14:43 AM 58.1813 25.7750 290° West 425 489 36,000  Level FlightAware ADS-B
Mon 07:15:30 AM 58.2122 25.6090 290° West 426 490 36,000  Level FlightAware ADS-B
Mon 07:16:30 AM 58.2514 25.3978 289° West 429 494 36,000  Level FlightAware ADS-B
Mon 07:17:30 AM 58.2900 25.1871 289° West 430 495 36,000  Level FlightAware ADS-B
Mon 07:18:08 AM 58.3135 25.0579 289° West 430 495 36,000  Level FlightAware ADS-B
Mon 07:18:38 AM 58.3338 24.9447 289° West 430 495 36,000  Level FlightAware ADS-B
Mon 07:19:08 AM 58.3533 24.8360 289° West 430 495 36,000  Level FlightAware ADS-B
Mon 07:19:57 AM 58.3842 24.6616 289° West 429 494 36,000  Level FlightAware ADS-B
Mon 07:20:29 AM 58.4018 24.5622 289° West 430 495 36,000  Level FlightAware ADS-B
Mon 07:21:03 AM 58.4218 24.4482 288° West 431 496 36,000  Level FlightAware ADS-B
Mon 07:21:56 AM 58.4545 24.2322 286° West 432 497 36,000  Level FlightAware ADS-B
Mon 07:22:37 AM 58.4771 24.0809 286° West 432 497 36,000  Level FlightAware ADS-B
Mon 07:23:44 AM 58.5136 23.8366 286° West 431 496 36,000  Level FlightAware ADS-B
Mon 07:24:17 AM 58.5291 23.7315 286° West 430 495 36,000  Level FlightAware ADS-B
Mon 07:24:58 AM 58.5514 23.5787 286° West 430 495 36,000  Level FlightAware ADS-B
Mon 07:25:34 AM 58.5722 23.4351 286° West 429 494 36,000  Level FlightAware ADS-B
Mon 07:27:27 AM 58.6310 23.0232 285° West 427 491 36,000  Level FlightAware ADS-B
Mon 07:27:57 AM 58.6454 22.9200 285° West 426 490 36,000  Level FlightAware ADS-B
Mon 07:28:28 AM 58.6615 22.8043 285° West 426 490 36,000  Level FlightAware ADS-B
Mon 07:29:07 AM 58.6817 22.6603 285° West 424 488 36,000  Level FlightAware ADS-B
Mon 07:29:39 AM 58.6973 22.5457 285° West 424 488 36,000  Level FlightAware ADS-B
Mon 07:30:09 AM 58.7122 22.4355 285° West 425 489 36,000  Level FlightAware ADS-B
Mon 07:30:48 AM 58.7308 22.2979 285° West 424 488 36,000  Level FlightAware ADS-B
Mon 07:31:19 AM 58.7466 22.1807 285° West 424 488 36,000  Level FlightAware ADS-B
Mon 07:31:58 AM 58.7652 22.0395 284° West 423 487 36,000  Level FlightAware ADS-B
Mon 07:32:35 AM 58.7828 21.9054 284° West 423 487 36,000  Level FlightAware ADS-B
Mon 07:33:06 AM 58.7976 21.7928 284° West 422 486 36,000  Level FlightAware ADS-B
Mon 07:33:38 AM 58.8127 21.6765 284° West 421 484 36,000  Level FlightAware ADS-B
Mon 07:34:20 AM 58.8305 21.5372 284° West 420 483 36,000  Level FlightAware ADS-B
Mon 07:35:25 AM 58.8193 21.6254 284° West 419 482 36,000  Level FlightAware ADS-B
Mon 07:36:42 AM 58.8441 21.4305 283° West 418 481 36,000  Level FlightAware ADS-B
Mon 07:37:32 AM 58.8193 21.6254 286° West 420 483 36,000  Level FlightAware ADS-B
Mon 07:38:08 AM 58.8193 21.6254 288° West 422 486 36,000  Level FlightAware ADS-B
Mon 07:41:06 AM 58.8193 21.6254 287° West 421 484 36,000  Level FlightAware ADS-B
Mon 07:46:24 AM 59.2278 18.9229 286° West 422 486 36,000  Level FlightAware ADS-B
Mon 07:47:02 AM 59.2497 18.7757 286° West 423 487 36,000  Level FlightAware ADS-B
Mon 07:47:33 AM 59.2690 18.6449 286° West 422 486 36,000  Level FlightAware ADS-B
Mon 07:48:04 AM 59.2828 18.5505 286° West 423 487 36,000  Level FlightAware ADS-B
Mon 07:48:43 AM 59.3036 18.4064 286° West 424 488 36,000  Level FlightAware ADS-B
Mon 07:49:17 AM 59.3243 18.2624 286° West 426 490 36,000  Level FlightAware ADS-B
Mon 07:50:04 AM 59.3460 18.1094 286° West 425 489 36,000  Level FlightAware ADS-B
Mon 07:50:42 AM 59.3649 17.9765 286° West 422 486 36,000  Level FlightAware ADS-B
Mon 07:51:02 AM 59.3792 17.8749 284° West 418 481 36,000  Level FlightAware ADS-B
Mon 07:51:32 AM 59.3943 17.7657 284° West 416 479 36,000  Level FlightAware ADS-B
Mon 07:52:04 AM 59.4077 17.6675 285° West 419 482 36,000  Level FlightAware ADS-B
Mon 07:52:18 AM 59.4171 17.5988 284° West 417 480 36,000  Level FlightAware ADS-B
Mon 07:53:04 AM 59.4372 17.4522 285° West 420 483 36,000  Level FlightAware ADS-B
Mon 07:53:37 AM 59.4542 17.3275 285° West 421 484 36,000  Level FlightAware ADS-B
Mon 07:54:17 AM 59.4768 17.1583 284° West 420 483 36,000  Level FlightAware ADS-B
Mon 07:55:07 AM 59.4984 16.9962 285° West 423 487 36,000  Level FlightAware ADS-B
Mon 07:55:46 AM 59.5176 16.8497 284° West 423 487 36,000  Level FlightAware ADS-B
Mon 07:56:17 AM 59.5352 16.7140 283° West 422 486 36,000  Level FlightAware ADS-B
Mon 07:56:47 AM 59.5466 16.6256 284° West 424 488 36,000  Level FlightAware ADS-B
Mon 07:57:01 AM 59.5566 16.5483 283° West 423 487 36,000  Level FlightAware ADS-B
Mon 07:57:32 AM 59.5714 16.4326 283° West 423 487 36,000  Level FlightAware ADS-B
Mon 07:58:04 AM 59.5839 16.3326 284° West 425 489 36,000  Level FlightAware ADS-B
Mon 07:58:48 AM 59.6072 16.1475 284° West 426 490 36,000  Level FlightAware ADS-B
Mon 07:59:18 AM 59.6210 16.0355 284° West 428 493 36,000  Level FlightAware ADS-B
Mon 07:59:48 AM 59.6349 15.9224 284° West 428 493 36,000  Level FlightAware ADS-B
Mon 08:00:18 AM 59.6490 15.8079 284° West 427 491 36,000  Level FlightAware ADS-B
Mon 08:00:48 AM 59.6630 15.6924 284° West 427 491 36,000  Level FlightAware ADS-B
Mon 08:01:18 AM 59.6765 15.5810 283° West 427 491 36,000  Level FlightAware ADS-B
Mon 08:01:48 AM 59.6902 15.4655 283° West 426 490 36,000  Level FlightAware ADS-B
Mon 08:02:18 AM 59.7033 15.3548 283° West 426 490 36,000  Level FlightAware ADS-B
Mon 08:02:48 AM 59.7169 15.2389 283° West 427 491 36,000  Level FlightAware ADS-B
Mon 08:03:19 AM 59.7303 15.1239 283° West 427 491 36,000  Level FlightAware ADS-B
Mon 08:04:03 AM 59.7496 14.9563 282° West 425 489 36,000  Level FlightAware ADS-B
Mon 08:04:48 AM 59.7689 14.7862 282° West 425 489 36,000  Level FlightAware ADS-B
Mon 08:05:34 AM 59.7883 14.6136 282° West 427 491 36,000  Level FlightAware ADS-B
Mon 08:06:18 AM 59.8077 14.4391 281° West 427 491 36,000  Level FlightAware ADS-B
Mon 08:06:49 AM 59.8204 14.3230 281° West 427 491 36,000  Level FlightAware ADS-B
Mon 08:07:33 AM 59.8388 14.1539 281° West 427 491 36,000  Level FlightAware ADS-B
Mon 08:08:17 AM 59.8571 13.9829 281° West 427 491 36,000  Level FlightAware ADS-B
Mon 08:08:47 AM 59.8693 13.8675 281° West 426 490 36,000  Level FlightAware ADS-B
Mon 08:09:19 AM 59.8819 13.7480 282° West 427 491 36,000  Level FlightAware ADS-B
Mon 08:10:03 AM 59.8996 13.5771 282° West 427 491 36,000  Level FlightAware ADS-B
Mon 08:10:33 AM 59.9143 13.4626 288° West 431 496 36,000  Level FlightAware ADS-B
Mon 08:11:03 AM 59.9316 13.3503 286° West 429 494 36,000  Level FlightAware ADS-B
Mon 08:11:48 AM 59.9573 13.1801 286° West 430 495 36,000  Level FlightAware ADS-B
Mon 08:12:18 AM 59.9743 13.0663 286° West 431 496 36,000  Level FlightAware ADS-B
Mon 08:12:49 AM 59.9920 12.9471 286° West 432 497 36,000  Level FlightAware ADS-B
Mon 08:13:33 AM 60.0170 12.7781 286° West 432 497 36,000  Level FlightAware ADS-B
Mon 08:14:03 AM 60.0341 12.6629 285° West 431 496 36,000  Level FlightAware ADS-B
Mon 08:14:33 AM 60.0507 12.5477 285° West 431 496 36,000  Level FlightAware ADS-B
Mon 08:15:03 AM 60.0674 12.4308 285° West 430 495 36,000  Level FlightAware ADS-B
Mon 08:15:48 AM 60.0917 12.2602 286° West 432 497 36,000  Level FlightAware ADS-B
Mon 08:16:18 AM 60.1082 12.1439 286° West 432 497 36,000  Level FlightAware ADS-B
Mon 08:17:03 AM 60.1321 11.9739 286° West 433 498 36,000  Level FlightAware ADS-B
Mon 08:17:33 AM 60.1483 11.8573 286° West 433 498 36,000  Level FlightAware ADS-B
Mon 08:18:04 AM 60.1648 11.7378 285° West 435 501 36,000  Level FlightAware ADS-B
Mon 08:18:34 AM 60.1811 11.6186 285° West 435 501 36,000  Level FlightAware ADS-B
Mon 08:19:04 AM 60.1966 11.5044 285° West 434 499 36,000  Level FlightAware ADS-B
Mon 08:19:48 AM 60.2198 11.3323 285° West 433 498 36,000  Level FlightAware ADS-B
Mon 08:20:18 AM 60.2352 11.2174 285° West 433 498 36,000  Level FlightAware ADS-B
Mon 08:20:49 AM 60.2513 11.0959 285° West 433 498 36,000  Level FlightAware ADS-B
Mon 08:21:19 AM 60.2665 10.9801 284° West 430 495 36,000  Level FlightAware ADS-B
Mon 08:21:56 AM 60.2850 10.8386 284° West 430 495 36,000  Level FlightAware ADS-B
Mon 08:22:35 AM 60.3045 10.6872 284° West 430 495 36,000  Level FlightAware ADS-B
Mon 08:23:19 AM 60.3259 10.5202 283° West 432 497 36,000  Level FlightAware ADS-B
Mon 08:23:50 AM 60.3416 10.3953 283° West 433 498 36,000  Level FlightAware ADS-B
Mon 08:24:34 AM 60.3635 10.2207 283° West 432 497 36,000  Level FlightAware ADS-B
Mon 08:25:10 AM 60.3807 10.0811 283° West 432 497 36,000  Level FlightAware ADS-B
Mon 08:25:49 AM 60.3994 9.9289 283° West 432 497 36,000  Level FlightAware ADS-B
Mon 08:26:33 AM 60.4206 9.7545 283° West 434 499 36,000  Level FlightAware ADS-B
Mon 08:27:04 AM 60.4356 9.6304 283° West 436 502 36,000  Level FlightAware ADS-B
Mon 08:27:40 AM 60.4525 9.4879 283° West 438 504 36,000  Level FlightAware ADS-B
Mon 08:28:15 AM 60.4686 9.3507 283° West 445 512 36,000  Level FlightAware ADS-B
Mon 08:28:48 AM 60.4843 9.2150 283° West 448 516 36,000  Level FlightAware ADS-B
Mon 08:29:28 AM 60.5034 9.0499 283° West 448 516 36,000  Level FlightAware ADS-B
Mon 08:30:39 AM 60.5359 8.7639 283° West 449 517 36,000  Level FlightAware ADS-B
Mon 08:31:09 AM 60.5497 8.6400 283° West 446 513 36,000  Level FlightAware ADS-B
Mon 08:32:35 AM 60.5882 8.2896 283° West 449 517 36,000 -9 Level FlightAware ADS-B
Mon 08:35:00 AM 60.6517 7.6856 282° West  Level Estimated
Mon 08:36:00 AM 60.6772 7.4349 282° West  Level Estimated
Mon 08:37:00 AM 60.7021 7.1839 282° West  Level Estimated
Mon 08:38:00 AM 60.7267 6.9325 281° West  Level Estimated
Mon 08:39:00 AM 60.7507 6.6808 281° West  Level Estimated
Mon 08:40:00 AM 60.7743 6.4286 281° West  Level Estimated
Mon 08:41:00 AM 60.7974 6.1761 281° West  Level Estimated
Mon 08:42:00 AM 60.8200 5.9232 281° West  Level Estimated
Mon 08:43:00 AM 60.8422 5.6700 280° West  Level Estimated
Mon 08:44:00 AM 60.8639 5.4164 280° West  Level Estimated
Mon 08:45:00 AM 60.8851 5.1625 280° West  Level Estimated
Mon 08:46:00 AM 60.9058 4.9082 280° West  Level Estimated
Mon 08:47:00 AM 60.9261 4.6536 279° West  Level Estimated
Mon 08:48:00 AM 60.9458 4.3987 279° West  Level Estimated
Mon 08:49:00 AM 60.9651 4.1435 279° West  Level Estimated
Mon 08:50:00 AM 60.9839 3.8880 279° West  Level Estimated
Mon 08:51:00 AM 61.0022 3.6321 279° West  Level Estimated
Mon 08:52:00 AM 61.0200 3.3760 278° West  Level Estimated
Mon 08:53:00 AM 61.0374 3.1196 278° West  Level Estimated
Mon 08:54:00 AM 61.0542 2.8630 278° West  Level Estimated
Mon 08:55:00 AM 61.0706 2.6060 278° West  Level Estimated
Mon 08:56:00 AM 61.0865 2.3488 277° West  Level Estimated
Mon 08:57:00 AM 61.1019 2.0914 277° West  Level Estimated
Mon 08:58:00 AM 61.1168 1.8337 277° West  Level Estimated
Mon 08:59:00 AM 61.1312 1.5757 277° West  Level Estimated
Mon 09:00:00 AM 61.1451 1.3175 276° West  Level Estimated
Mon 09:01:00 AM 61.1585 1.0591 276° West  Level Estimated
Mon 09:02:00 AM 61.1715 0.8005 276° West  Level Estimated
Mon 09:03:00 AM 61.1839 0.5417 276° West  Level Estimated
Mon 09:04:00 AM 61.1959 0.2827 276° West  Level Estimated
Mon 09:05:00 AM 61.2073 0.0235 275° West  Level Estimated
Mon 09:06:00 AM 61.2183 -0.2359 275° West  Level Estimated
Mon 09:07:00 AM 61.2287 -0.4955 275° West  Level Estimated
Mon 09:08:00 AM 61.2387 -0.7553 275° West  Level Estimated
Mon 09:09:00 AM 61.2481 -1.0152 274° West  Level Estimated
Mon 09:10:00 AM 61.2571 -1.2752 274° West  Level Estimated
Mon 09:11:00 AM 61.2656 -1.5354 274° West  Level Estimated
Mon 09:12:00 AM 61.2736 -1.7958 274° West  Level Estimated
Mon 09:13:00 AM 61.2810 -2.0562 274° West  Level Estimated
Mon 09:14:00 AM 61.2880 -2.3168 273° West  Level Estimated
Mon 09:15:00 AM 61.2945 -2.5775 273° West  Level Estimated
Mon 09:16:00 AM 61.3005 -2.8383 273° West  Level Estimated
Mon 09:17:00 AM 61.3059 -3.0992 273° West  Level Estimated
Mon 09:18:00 AM 61.3109 -3.3602 272° West  Level Estimated
Mon 09:19:00 AM 61.3154 -3.6213 272° West  Level Estimated
Mon 09:20:00 AM 61.3194 -3.8824 272° West  Level Estimated
Mon 09:21:00 AM 61.3228 -4.1436 272° West  Level Estimated
Mon 09:22:00 AM 61.3258 -4.4049 271° West  Level Estimated
Mon 09:23:00 AM 61.3283 -4.6662 271° West  Level Estimated
Mon 09:24:00 AM 61.3302 -4.9275 271° West  Level Estimated
Mon 09:25:00 AM 61.3317 -5.1888 271° West  Level Estimated
Mon 09:26:00 AM 61.3327 -5.4502 271° West  Level Estimated
Mon 09:27:00 AM 61.3331 -5.7116 270° West  Level Estimated
Mon 09:28:00 AM 61.3331 -5.9730 270° West  Level Estimated
Mon 09:29:00 AM 61.3325 -6.2344 270° West  Level Estimated
Mon 09:30:00 AM 61.3315 -6.4958 270° West  Level Estimated
Mon 09:31:00 AM 61.3299 -6.7571 269° West  Level Estimated
Mon 09:32:00 AM 61.3279 -7.0185 269° West  Level Estimated
Mon 09:33:00 AM 61.3254 -7.2798 269° West  Level Estimated
Mon 09:34:00 AM 61.3223 -7.5410 269° West  Level Estimated
Mon 09:35:00 AM 61.3187 -7.8022 268° West  Level Estimated
Mon 09:36:00 AM 61.3147 -8.0633 268° West  Level Estimated
Mon 09:37:00 AM 61.3101 -8.3244 268° West  Level Estimated
Mon 09:38:00 AM 61.3051 -8.5853 268° West  Level Estimated
Mon 09:39:00 AM 61.2995 -8.8462 268° West  Level Estimated
Mon 09:40:00 AM 61.2935 -9.1070 267° West  Level Estimated
Mon 09:41:00 AM 61.2869 -9.3677 267° West  Level Estimated
Mon 09:42:00 AM 61.2799 -9.6283 267° West  Level Estimated
Mon 09:43:00 AM 61.2723 -9.8887 267° West  Level Estimated
Mon 09:44:00 AM 61.2643 -10.1490 266° West  Level Estimated
Mon 09:45:00 AM 61.2557 -10.4092 266° West  Level Estimated
Mon 09:46:00 AM 61.2467 -10.6692 266° West  Level Estimated
Mon 09:47:00 AM 61.2371 -10.9291 266° West  Level Estimated
Mon 09:48:00 AM 61.2271 -11.1888 266° West  Level Estimated
Mon 09:49:00 AM 61.2165 -11.4484 265° West  Level Estimated
Mon 09:50:00 AM 61.2055 -11.7078 265° West  Level Estimated
Mon 09:51:00 AM 61.1940 -11.9669 265° West  Level Estimated
Mon 09:52:00 AM 61.1819 -12.2259 265° West  Level Estimated
Mon 09:53:00 AM 61.1694 -12.4847 264° West  Level Estimated
Mon 09:54:00 AM 61.1564 -12.7433 264° West  Level Estimated
Mon 09:55:00 AM 61.1429 -13.0017 264° West  Level Estimated
Mon 09:56:00 AM 61.1289 -13.2598 264° West  Level Estimated
Mon 09:57:00 AM 61.1144 -13.5177 263° West  Level Estimated
Mon 09:58:00 AM 61.0994 -13.7754 263° West  Level Estimated
Mon 09:59:00 AM 61.0839 -14.0328 263° West  Level Estimated
Mon 10:00:00 AM 61.0680 -14.2900 263° West  Level Estimated
Mon 10:01:00 AM 61.0515 -14.5469 263° West  Level Estimated
Mon 10:02:00 AM 61.0346 -14.8035 262° West  Level Estimated
Mon 10:03:00 AM 61.0172 -15.0598 262° West  Level Estimated
Mon 10:04:00 AM 60.9993 -15.3159 262° West  Level Estimated
Mon 10:05:00 AM 60.9809 -15.5717 262° West  Level Estimated
Mon 10:06:00 AM 60.9620 -15.8272 261° West  Level Estimated
Mon 10:07:00 AM 60.9426 -16.0823 261° West  Level Estimated
Mon 10:08:00 AM 60.9228 -16.3372 261° West  Level Estimated
Mon 10:09:00 AM 60.9025 -16.5917 261° West  Level Estimated
Mon 10:10:00 AM 60.8817 -16.8459 261° West  Level Estimated
Mon 10:11:00 AM 60.8604 -17.0998 260° West  Level Estimated
Mon 10:12:00 AM 60.8386 -17.3533 260° West  Level Estimated
Mon 10:13:00 AM 60.8164 -17.6065 260° West  Level Estimated
Mon 10:14:00 AM 60.7937 -17.8593 260° West  Level Estimated
Mon 10:15:00 AM 60.7705 -18.1118 259° West  Level Estimated
Mon 10:16:00 AM 60.7469 -18.3639 259° West  Level Estimated
Mon 10:17:00 AM 60.7227 -18.6156 259° West  Level Estimated
Mon 10:17:42 AM 61.0000 -20.0000 263° West 463 533 35,000  Level ETMS Enhanced Traffic Management System
Mon 10:18:00 AM 60.6981 -18.8669 259° West  Level Estimated
Mon 10:19:00 AM 60.6730 -19.1179 259° West  Level Estimated
Mon 10:20:00 AM 60.6475 -19.3684 258° West  Level Estimated
Mon 10:21:00 AM 60.6215 -19.6186 258° West  Level Estimated
Mon 10:22:00 AM 60.5950 -19.8683 258° West  Level Estimated
Mon 10:23:00 AM 60.8954 -21.5756 262° West 463 533 35,000  Level FlightAware Transoceanic
Mon 10:24:00 AM 60.8762 -21.8372 261° West 463 533 35,000  Level FlightAware Transoceanic
Mon 10:25:00 AM 60.8564 -22.0984 261° West 463 533 35,000  Level FlightAware Transoceanic
Mon 10:26:00 AM 60.8362 -22.3593 261° West 463 533 35,000  Level FlightAware Transoceanic
Mon 10:27:00 AM 60.8155 -22.6199 261° West 463 533 35,000  Level FlightAware Transoceanic
Mon 10:28:00 AM 60.7942 -22.8801 260° West 463 533 35,000  Level FlightAware Transoceanic
Mon 10:29:00 AM 60.7725 -23.1400 260° West 463 533 35,000  Level FlightAware Transoceanic
Mon 10:30:00 AM 60.7503 -23.3995 260° West 463 533 35,000  Level FlightAware Transoceanic
Mon 10:31:00 AM 60.7275 -23.6587 260° West 463 533 35,000  Level FlightAware Transoceanic
Mon 10:32:00 AM 60.7043 -23.9175 259° West 463 533 35,000  Level FlightAware Transoceanic
Mon 10:33:00 AM 60.6805 -24.1759 259° West 463 533 35,000  Level FlightAware Transoceanic
Mon 10:34:00 AM 60.6563 -24.4340 259° West 463 533 35,000  Level FlightAware Transoceanic
Mon 10:35:00 AM 60.6315 -24.6916 259° West 463 533 35,000  Level FlightAware Transoceanic
Mon 10:36:00 AM 60.6063 -24.9489 259° West 463 533 35,000  Level FlightAware Transoceanic
Mon 10:37:00 AM 60.5806 -25.2057 258° West 463 533 35,000  Level FlightAware Transoceanic
Mon 10:38:00 AM 60.5544 -25.4621 258° West 463 533 35,000  Level FlightAware Transoceanic
Mon 10:39:00 AM 60.5277 -25.7181 258° West 463 533 35,000  Level FlightAware Transoceanic
Mon 10:40:00 AM 60.5005 -25.9737 258° West 463 533 35,000  Level FlightAware Transoceanic
Mon 10:41:00 AM 60.4728 -26.2288 257° West 463 533 35,000  Level FlightAware Transoceanic
Mon 10:42:00 AM 60.4446 -26.4835 257° West 463 533 35,000  Level FlightAware Transoceanic
Mon 10:43:00 AM 60.4160 -26.7378 257° West 463 533 35,000  Level FlightAware Transoceanic
Mon 10:44:00 AM 60.3868 -26.9916 257° West 463 533 35,000  Level FlightAware Transoceanic
Mon 10:45:00 AM 60.3572 -27.2450 257° West 463 533 35,000  Level FlightAware Transoceanic
Mon 10:46:00 AM 60.3271 -27.4979 256° West 463 533 35,000  Level FlightAware Transoceanic
Mon 10:47:00 AM 60.2965 -27.7503 256° West 463 533 35,000  Level FlightAware Transoceanic
Mon 10:48:00 AM 60.2655 -28.0022 256° West 463 533 35,000  Level FlightAware Transoceanic
Mon 10:49:00 AM 60.2339 -28.2537 256° West 463 533 35,000  Level FlightAware Transoceanic
Mon 10:50:00 AM 60.2019 -28.5047 255° West 463 533 35,000  Level FlightAware Transoceanic
Mon 10:51:00 AM 60.1694 -28.7552 255° West 463 533 35,000  Level FlightAware Transoceanic
Mon 10:52:00 AM 60.1365 -29.0051 255° West 463 533 35,000  Level FlightAware Transoceanic
Mon 10:53:00 AM 60.1031 -29.2546 255° West 463 533 35,000  Level FlightAware Transoceanic
Mon 10:54:00 AM 60.0692 -29.5036 255° West 463 533 35,000  Level FlightAware Transoceanic
Mon 10:55:00 AM 60.0348 -29.7521 254° West 463 533 35,000  Level FlightAware Transoceanic
Mon 10:56:00 AM 59.9886 -29.9853 248° West  Level Estimated
Mon 10:57:00 AM 59.9420 -30.2178 248° West  Level Estimated
Mon 10:58:00 AM 59.8949 -30.4498 248° West  Level Estimated
Mon 10:59:00 AM 59.8475 -30.6810 248° West  Level Estimated
Mon 11:00:00 AM 59.7996 -30.9116 248° West  Level Estimated
Mon 11:01:00 AM 59.7514 -31.1415 247° West  Level Estimated
Mon 11:02:00 AM 59.7028 -31.3708 247° West  Level Estimated
Mon 11:03:00 AM 59.6537 -31.5994 247° West  Level Estimated
Mon 11:04:00 AM 59.6043 -31.8273 247° West  Level Estimated
Mon 11:05:00 AM 59.5544 -32.0545 247° West  Level Estimated
Mon 11:06:00 AM 59.5042 -32.2811 246° West  Level Estimated
Mon 11:07:00 AM 59.4536 -32.5070 246° West  Level Estimated
Mon 11:08:00 AM 59.4025 -32.7322 246° West  Level Estimated
Mon 11:09:00 AM 59.3512 -32.9568 246° West  Level Estimated
Mon 11:10:00 AM 59.2994 -33.1806 246° West  Level Estimated
Mon 11:11:00 AM 59.2472 -33.4038 246° West  Level Estimated
Mon 11:12:00 AM 59.1947 -33.6263 245° Southwest  Level Estimated
Mon 11:13:00 AM 59.1417 -33.8481 245° Southwest  Level Estimated
Mon 11:14:00 AM 59.0884 -34.0692 245° Southwest  Level Estimated
Mon 11:15:00 AM 59.0348 -34.2897 245° Southwest  Level Estimated
Mon 11:16:00 AM 58.9807 -34.5094 245° Southwest  Level Estimated
Mon 11:17:00 AM 58.9263 -34.7285 244° Southwest  Level Estimated
Mon 11:18:00 AM 58.8715 -34.9468 244° Southwest  Level Estimated
Mon 11:19:00 AM 58.8163 -35.1645 244° Southwest  Level Estimated
Mon 11:20:00 AM 58.7608 -35.3815 244° Southwest  Level Estimated
Mon 11:21:00 AM 58.7049 -35.5977 244° Southwest  Level Estimated
Mon 11:22:00 AM 58.6487 -35.8133 243° Southwest  Level Estimated
Mon 11:23:00 AM 58.5921 -36.0282 243° Southwest  Level Estimated
Mon 11:24:00 AM 58.5351 -36.2424 243° Southwest  Level Estimated
Mon 11:24:19 AM 59.4500 -36.2333 242° Southwest 430 495 35,000  Level Gander Center
Mon 11:25:00 AM 58.4778 -36.4559 243° Southwest  Level Estimated
Mon 11:25:19 AM 59.4333 -36.4667 262° West 420 483 35,000  Level Gander Center
Mon 11:26:00 AM 58.4201 -36.6687 243° Southwest  Level Estimated
Mon 11:26:19 AM 59.4000 -36.6667 252° West 430 495 35,000  Level Gander Center
Mon 11:27:00 AM 58.3621 -36.8808 243° Southwest  Level Estimated
Mon 11:27:19 AM 59.3667 -36.8833 253° West 420 483 35,000  Level Gander Center
Mon 11:28:00 AM 58.3037 -37.0922 242° Southwest  Level Estimated
Mon 11:28:19 AM 59.3333 -37.1167 254° West 420 483 35,000  Level Gander Center
Mon 11:29:00 AM 58.2450 -37.3029 242° Southwest  Level Estimated
Mon 11:29:19 AM 59.3333 -37.3333 270° West 420 483 35,000  Level Gander Center
Mon 11:30:19 AM 59.3000 -37.5500 253° West 420 483 35,000  Level Gander Center
Mon 11:31:19 AM 59.2667 -37.7833 254° West 420 483 35,000  Level Gander Center
Mon 11:32:19 AM 59.2333 -38.0000 253° West 420 483 35,000  Level Gander Center
Mon 11:33:19 AM 59.2167 -38.1833 260° West 420 483 35,000  Level Gander Center
Mon 11:34:19 AM 59.1833 -38.4000 253° West 420 483 35,000  Level Gander Center
Mon 11:35:19 AM 59.1667 -38.6333 262° West 410 472 35,000  Level Gander Center
Mon 11:36:19 AM 59.1333 -38.8500 253° West 410 472 35,000  Level Gander Center
Mon 11:37:19 AM 59.1000 -39.0833 255° West 420 483 35,000  Level Gander Center
Mon 11:38:19 AM 59.0833 -39.2667 260° West 420 483 35,000  Level Gander Center
Mon 11:39:19 AM 59.0500 -39.4833 253° West 420 483 35,000  Level Gander Center
Mon 11:40:19 AM 59.0167 -39.7000 253° West 420 483 35,000  Level Gander Center
Mon 11:41:19 AM 58.9833 -39.9333 255° West 420 483 35,000  Level Gander Center
Mon 11:42:19 AM 58.9500 -40.1500 253° West 420 483 35,000  Level Gander Center
Mon 11:43:19 AM 58.9167 -40.3333 251° West 420 483 35,000  Level Gander Center
Mon 11:44:19 AM 58.8833 -40.5500 254° West 420 483 35,000  Level Gander Center
Mon 11:45:19 AM 58.8500 -40.7667 254° West 420 483 35,000  Level Gander Center
Mon 11:46:19 AM 58.8167 -40.9833 254° West 420 483 35,000  Level Gander Center
Mon 11:47:19 AM 58.7833 -41.2167 255° West 420 483 35,000  Level Gander Center
Mon 11:48:19 AM 58.7500 -41.4000 251° West 420 483 35,000  Level Gander Center
Mon 11:49:19 AM 58.7167 -41.6167 254° West 420 483 35,000  Level Gander Center
Mon 11:50:19 AM 58.6833 -41.8333 254° West 420 483 35,000  Level Gander Center
Mon 11:51:19 AM 58.6333 -42.0500 246° West 420 483 35,000  Level Gander Center
Mon 11:52:19 AM 58.6000 -42.2667 254° West 420 483 35,000  Level Gander Center
Mon 11:53:19 AM 58.5667 -42.4833 254° West 420 483 35,000  Level Gander Center
Mon 11:54:19 AM 58.5500 -42.7000 262° West 420 483 35,000  Level Gander Center
Mon 11:55:19 AM 58.5000 -42.8833 242° Southwest 420 483 35,000  Level Gander Center
Mon 11:56:19 AM 58.4667 -43.1000 254° West 430 495 35,000  Level Gander Center
Mon 11:57:19 AM 58.4333 -43.3167 254° West 430 495 35,000  Level Gander Center
Mon 11:58:19 AM 58.3833 -43.5333 246° West 430 495 35,000  Level Gander Center
Mon 11:59:19 AM 58.3500 -43.7500 254° West 430 495 35,000  Level Gander Center
Mon 12:00:19 PM 58.3167 -43.9500 252° West 430 495 35,000  Level Gander Center
Mon 12:01:19 PM 58.2667 -44.1667 246° West 430 495 35,000  Level Gander Center
Mon 12:02:19 PM 58.2333 -44.3833 254° West 430 495 35,000  Level Gander Center
Mon 12:03:19 PM 58.1833 -44.6000 246° West 430 495 35,000  Level Gander Center
Mon 12:04:19 PM 58.1500 -44.8167 254° West 430 495 35,000  Level Gander Center
Mon 12:05:19 PM 58.1000 -45.0167 245° Southwest 430 495 35,000  Level Gander Center
Mon 12:06:19 PM 58.0667 -45.2333 254° West 430 495 35,000  Level Gander Center
Mon 12:07:19 PM 58.0167 -45.4500 247° West 430 495 35,000  Level Gander Center
Mon 12:08:19 PM 57.9833 -45.6167 249° West 430 495 35,000  Level Gander Center
Mon 12:09:19 PM 57.9333 -45.8333 247° West 430 495 35,000  Level Gander Center
Mon 12:10:19 PM 57.8833 -46.0500 247° West 430 495 35,000  Level Gander Center
Mon 12:11:19 PM 57.8500 -46.2500 253° West 430 495 35,000  Level Gander Center
Mon 12:12:19 PM 57.8000 -46.4667 247° West 430 495 35,000  Level Gander Center
Mon 12:13:19 PM 57.7500 -46.6833 247° West 430 495 35,000  Level Gander Center
Mon 12:14:19 PM 57.7000 -46.8833 245° Southwest 440 506 35,000  Level Gander Center
Mon 12:15:19 PM 57.6500 -47.1167 248° West 440 506 35,000  Level Gander Center
Mon 12:16:19 PM 57.6167 -47.3333 254° West 440 506 35,000  Level Gander Center
Mon 12:17:19 PM 57.5667 -47.5333 245° Southwest 440 506 35,000  Level Gander Center
Mon 12:18:19 PM 57.5167 -47.7500 247° West 440 506 35,000  Level Gander Center
Mon 12:19:19 PM 57.4667 -47.9500 245° Southwest 440 506 35,000  Level Gander Center
Mon 12:20:19 PM 57.4333 -48.1500 253° West 440 506 35,000  Level Gander Center
Mon 12:21:19 PM 57.3833 -48.3500 245° Southwest 440 506 35,000  Level Gander Center
Mon 12:22:19 PM 57.3333 -48.5667 247° West 440 506 35,000  Level Gander Center
Mon 12:23:19 PM 57.2833 -48.7667 245° Southwest 440 506 35,000  Level Gander Center
Mon 12:24:19 PM 57.2333 -48.9667 245° Southwest 440 506 35,000  Level Gander Center
Mon 12:25:19 PM 57.1667 -49.1833 240° Southwest 440 506 35,000  Level Gander Center
Mon 12:26:19 PM 57.1167 -49.3833 245° Southwest 440 506 35,000  Level Gander Center
Mon 12:27:19 PM 57.0833 -49.6167 255° West 440 506 35,000  Level Gander Center
Mon 12:28:19 PM 57.0333 -49.8167 245° Southwest 450 518 35,000  Level Gander Center
Mon 12:29:19 PM 56.9833 -50.0167 245° Southwest 450 518 35,000  Level Gander Center
Mon 12:30:19 PM 56.9500 -50.2333 254° West 450 518 35,000  Level Gander Center
Mon 12:31:19 PM 56.9167 -50.4333 253° West 440 506 35,000  Level Gander Center
Mon 12:43:34 PM 56.4000 -53.0333 228° Southwest 460 529 35,000  Level Gander Center
Mon 12:44:00 PM 55.8898 -52.5700 228° Southwest  Level FlightAware Approximate
Mon 12:44:34 PM 56.3667 -53.2500 255° West 450 518 35,000  Level Gander Center
Mon 12:45:00 PM 55.8063 -52.7355 228° Southwest  Level FlightAware Approximate
Mon 12:45:34 PM 56.3167 -53.4833 249° West 450 518 35,000  Level Gander Center
Mon 12:46:00 PM 55.7226 -52.9004 228° Southwest  Level FlightAware Approximate
Mon 12:46:34 PM 56.2833 -53.6667 252° West 450 518 35,000  Level Gander Center
Mon 12:47:00 PM 55.6387 -53.0645 228° Southwest  Level FlightAware Approximate
Mon 12:47:34 PM 56.2333 -53.8833 248° West 440 506 35,000  Level Gander Center
Mon 12:48:00 PM 55.5545 -53.2280 228° Southwest  Level FlightAware Approximate
Mon 12:48:34 PM 56.1833 -54.0667 244° Southwest 440 506 35,000  Level Gander Center
Mon 12:49:34 PM 56.1500 -54.3000 256° West 450 518 35,000  Level Gander Center
Mon 12:50:34 PM 56.0833 -54.5167 241° Southwest 450 518 35,000  Level Gander Center
Mon 12:57:34 PM 55.7500 -55.9667 247° West 450 518 35,000  Level Gander Center
Mon 12:58:34 PM 55.7000 -56.1500 244° Southwest 450 518 35,000  Level Gander Center
Mon 12:59:00 PM 55.6997 -56.2376 248° West  Level FlightAware Approximate
Mon 12:59:34 PM 55.6000 -56.3167 223° Southwest 450 518 35,000  Level Gander Center
Mon 01:00:00 PM 55.6512 -56.4424 247° West  Level FlightAware Approximate
Mon 01:00:34 PM 55.5333 -56.4667 232° Southwest 450 518 35,000  Level Gander Center
Mon 01:01:00 PM 55.6023 -56.6468 247° West  Level FlightAware Approximate
Mon 01:01:34 PM 55.4333 -56.6000 217° Southwest 450 518 35,000  Level Gander Center
Mon 01:02:00 PM 55.5530 -56.8506 247° West  Level FlightAware Approximate
Mon 01:02:34 PM 55.3333 -56.7500 220° Southwest 450 518 35,000  Level Gander Center
Mon 01:03:34 PM 55.2333 -56.9167 224° Southwest 450 518 35,000  Level Gander Center
Mon 01:04:34 PM 55.1667 -57.0667 232° Southwest 450 518 35,000  Level Gander Center
Mon 01:05:34 PM 55.0667 -57.2333 224° Southwest 450 518 35,000  Level Gander Center
Mon 01:06:34 PM 54.9667 -57.3833 221° Southwest 450 518 35,000  Level Gander Center
Mon 01:07:34 PM 54.8833 -57.5333 226° Southwest 450 518 35,000  Level Gander Center
Mon 01:08:34 PM 54.7833 -57.6833 221° Southwest 450 518 35,000  Level Gander Center
Mon 01:09:34 PM 54.7000 -57.8167 223° Southwest 460 529 35,000  Level Gander Center
Mon 01:10:34 PM 54.6000 -57.9667 221° Southwest 450 518 35,000  Level Gander Center
Mon 01:11:34 PM 54.5167 -58.1167 226° Southwest 460 529 35,000 350 Level Gander Center
Mon 01:12:34 PM 54.4167 -58.2667 221° Southwest 460 529 35,700 500 Climbing Gander Center
Mon 01:13:34 PM 54.3167 -58.4167 221° Southwest 450 518 36,000 150 Climbing Gander Center
Mon 01:14:34 PM 54.2333 -58.5667 226° Southwest 460 529 36,000  Level Gander Center
Mon 01:15:34 PM 54.1333 -58.7167 221° Southwest 460 529 36,000  Level Gander Center
Mon 01:16:34 PM 54.0333 -58.8667 221° Southwest 460 529 36,000  Level Gander Center
Mon 01:17:34 PM 53.9500 -58.9833 220° Southwest 460 529 36,000  Level Gander Center
Mon 01:18:34 PM 53.8500 -59.1333 222° Southwest 460 529 36,000  Level Gander Center
Mon 01:19:34 PM 53.7667 -59.2667 223° Southwest 460 529 36,000  Level Gander Center
Mon 01:20:34 PM 53.6667 -59.4167 222° Southwest 460 529 36,000  Level Gander Center
Mon 01:21:34 PM 53.5667 -59.5667 222° Southwest 460 529 36,000  Level Gander Center
Mon 01:22:34 PM 53.4667 -59.7167 222° Southwest 460 529 36,000  Level Gander Center
Mon 01:23:34 PM 53.3667 -59.8500 219° Southwest 460 529 36,000  Level Gander Center
Mon 01:24:34 PM 53.2833 -60.0000 227° Southwest 460 529 36,000  Level Gander Center
Mon 01:25:34 PM 53.1667 -60.1333 214° Southwest 460 529 36,000  Level Gander Center
Mon 01:26:34 PM 53.0833 -60.2833 227° Southwest 460 529 36,000  Level Gander Center
Mon 01:27:34 PM 53.0000 -60.4167 224° Southwest 450 518 36,000  Level Gander Center
Mon 01:28:34 PM 52.9000 -60.5667 222° Southwest 450 518 36,000  Level Gander Center
Mon 01:29:34 PM 52.8167 -60.6667 216° Southwest 450 518 36,000  Level Gander Center
Mon 01:30:34 PM 52.7167 -60.8167 222° Southwest 450 518 36,000 -250 Level Gander Center
Mon 01:31:34 PM 52.6167 -60.9500 219° Southwest 460 529 35,500 -500 Descending Gander Center
Mon 01:32:34 PM 52.5167 -61.0833 219° Southwest 460 529 35,000 -250 Descending Gander Center
Mon 01:33:34 PM 52.4167 -61.2333 222° Southwest 460 529 35,000  Level Gander Center
Mon 01:34:34 PM 52.3167 -61.3667 219° Southwest 460 529 35,000  Level Gander Center
Mon 01:35:21 PM 52.2500 -61.4500 217° Southwest 460 529 35,000  Level Moncton Center
Mon 01:36:21 PM 52.1333 -61.5833 215° Southwest 450 518 35,000  Level Moncton Center
Mon 01:37:34 PM 52.0167 -61.7667 224° Southwest 450 518 35,000  Level Gander Center
Mon 01:38:34 PM 51.9167 -61.8833 216° Southwest 460 529 35,000  Level Gander Center
Mon 01:39:34 PM 51.8167 -62.0167 220° Southwest 460 529 35,000  Level Gander Center
Mon 01:40:34 PM 51.7333 -62.1500 225° Southwest 460 529 35,000  Level Gander Center
Mon 01:41:34 PM 51.6333 -62.2833 220° Southwest 460 529 35,000  Level Gander Center
Mon 01:42:34 PM 51.5333 -62.4167 220° Southwest 460 529 35,000  Level Gander Center
Mon 01:43:21 PM 51.4500 -62.5167 217° Southwest 460 529 35,000  Level Moncton Center
Mon 01:44:21 PM 51.3500 -62.6333 216° Southwest 460 529 35,000  Level Moncton Center
Mon 01:45:21 PM 51.2500 -62.7667 220° Southwest 460 529 35,000  Level Moncton Center
Mon 01:46:34 PM 51.1500 -62.9333 226° Southwest 460 529 35,000  Level Gander Center
Mon 01:47:34 PM 51.0333 -63.0667 216° Southwest 460 529 35,000  Level Gander Center
Mon 01:48:34 PM 50.9333 -63.2000 220° Southwest 470 541 35,000  Level Gander Center
Mon 01:49:34 PM 50.8333 -63.3167 216° Southwest 470 541 35,000  Level Gander Center
Mon 01:50:34 PM 50.7333 -63.4500 220° Southwest 470 541 35,000  Level Gander Center
Mon 01:51:34 PM 50.6333 -63.5833 220° Southwest 460 529 35,000  Level Gander Center
Mon 01:52:34 PM 50.5333 -63.7000 217° Southwest 460 529 35,000  Level Gander Center
Mon 01:53:34 PM 50.4333 -63.8000 213° Southwest 460 529 35,000  Level Gander Center
Mon 01:54:34 PM 50.3167 -63.9500 219° Southwest 460 529 35,000  Level Gander Center
Mon 01:55:34 PM 50.2167 -64.0500 213° Southwest 450 518 35,000  Level Gander Center
Mon 01:56:34 PM 50.1333 -64.1833 226° Southwest 460 529 35,000  Level Gander Center
Mon 01:57:34 PM 50.0333 -64.3000 217° Southwest 460 529 35,000  Level Gander Center
Mon 01:58:34 PM 49.9333 -64.4333 221° Southwest 460 529 35,000  Level Gander Center
Mon 01:59:34 PM 49.8167 -64.5500 213° Southwest 460 529 35,000  Level Gander Center
Mon 02:00:34 PM 49.7167 -64.6667 217° Southwest 460 529 35,000  Level Gander Center
Mon 02:01:34 PM 49.6167 -64.8000 221° Southwest 460 529 35,000  Level Gander Center
Mon 02:02:33 PM 49.5167 -64.9167 217° Southwest 460 529 35,000  Level Gander Center
Mon 02:03:33 PM 49.4167 -65.0333 217° Southwest 460 529 35,000  Level Gander Center
Mon 02:04:33 PM 49.3000 -65.1500 213° Southwest 470 541 35,000  Level Gander Center
Mon 02:05:21 PM 49.2167 -65.2500 218° Southwest 460 529 35,000  Level Moncton Center
Mon 02:06:21 PM 49.1167 -65.3667 217° Southwest 460 529 35,000  Level Moncton Center
Mon 02:07:21 PM 49.0167 -65.5000 221° Southwest 460 529 35,000  Level Moncton Center
Mon 02:08:21 PM 48.9167 -65.6000 213° Southwest 460 529 35,000  Level Moncton Center
Mon 02:09:21 PM 48.8167 -65.7167 218° Southwest 460 529 35,000  Level Moncton Center
Mon 02:10:21 PM 48.7167 -65.8500 221° Southwest 470 541 35,000  Level Moncton Center
Mon 02:11:21 PM 48.6167 -65.9500 213° Southwest 470 541 35,000  Level Moncton Center
Mon 02:12:21 PM 48.4833 -66.0833 214° Southwest 470 541 35,000  Level Moncton Center
Mon 02:13:21 PM 48.3833 -66.1833 214° Southwest 470 541 35,000  Level Moncton Center
Mon 02:14:21 PM 48.2833 -66.3167 222° Southwest 470 541 35,000  Level Moncton Center
Mon 02:15:21 PM 48.1833 -66.4333 218° Southwest 470 541 35,000  Level Moncton Center
Mon 02:16:21 PM 48.0833 -66.5333 214° Southwest 470 541 35,000  Level Moncton Center
Mon 02:17:21 PM 47.9667 -66.6500 214° Southwest 470 541 35,000  Level Moncton Center
Mon 02:18:33 PM 47.8500 -66.7833 218° Southwest 470 541 35,000  Level Gander Center
Mon 02:19:33 PM 47.7333 -66.9000 214° Southwest 470 541 35,000  Level Gander Center
Mon 02:20:21 PM 47.6500 -66.9833 214° Southwest 470 541 35,000  Level Moncton Center
Mon 02:21:21 PM 47.5500 -67.1000 218° Southwest 460 529 35,000  Level Moncton Center
Mon 02:27:51 PM 46.9265 -67.8961 222° Southwest 448 516 35,000  Level FlightAware ADS-B
Mon 02:28:56 PM 46.8213 -68.0201 213° Southwest 462 532 35,000 491 Level FlightAware ADS-B (KBGR)
Mon 02:29:41 PM 46.7354 -68.0897 206° Southwest 471 542 35,900 833 Climbing FlightAware ADS-B
Mon 02:30:08 PM 46.6806 -68.1239 200° South 486 559 36,000 140 Climbing FlightAware ADS-B (KBGR)
Mon 02:30:24 PM 46.6575 -68.1359 197° South 494 568 36,000  Level FlightAware ADS-B
Mon 02:30:57 PM 46.6021 -68.1601 198° South 488 562 36,000  Level FlightAware ADS-B (KBGR)
Mon 02:31:27 PM 46.5122 -68.2019 197° South 481 554 36,000  Level FlightAware ADS-B
Mon 02:32:09 PM 46.4212 -68.2414 196° South 491 565 36,000  Level FlightAware ADS-B (KBGR)
Mon 02:32:40 PM 46.3554 -68.2687 196° South 500 575 36,000  Level FlightAware ADS-B
Mon 02:33:11 PM 46.2850 -68.2975 196° South 487 560 36,000  Level FlightAware ADS-B
Mon 02:33:42 PM 46.2170 -68.3251 196° South 481 554 36,000  Level FlightAware ADS-B
Mon 02:34:20 PM 46.1351 -68.3589 196° South 487 560 36,000  Level FlightAware ADS-B
Mon 02:35:08 PM 46.0338 -68.4001 196° South 485 558 36,000  Level FlightAware ADS-B
Mon 02:35:38 PM 45.9682 -68.4268 196° South 483 556 36,000  Level FlightAware ADS-B
Mon 02:36:21 PM 45.8762 -68.4642 196° South 488 562 36,000  Level FlightAware ADS-B
Mon 02:36:52 PM 45.8089 -68.4913 196° South 491 565 36,000  Level FlightAware ADS-B
Mon 02:37:25 PM 45.7425 -68.5180 196° South 494 568 36,000  Level FlightAware ADS-B (KBGR)
Mon 02:37:56 PM 45.6687 -68.5477 196° South 497 572 36,000  Level FlightAware ADS-B
Mon 02:38:26 PM 45.6001 -68.5751 196° South 500 575 36,000  Level FlightAware ADS-B
Mon 02:38:58 PM 45.5310 -68.6027 196° South 500 575 36,000  Level FlightAware ADS-B (KBGR)
Mon 02:39:29 PM 45.4617 -68.6302 196° South 498 573 36,000  Level FlightAware ADS-B
Mon 02:40:00 PM 45.4016 -68.6541 196° South 500 575 36,000  Level FlightAware ADS-B (KBGR)
Mon 02:40:36 PM 45.3129 -68.6893 196° South 499 574 36,000  Level FlightAware ADS-B
Mon 02:41:06 PM 45.2503 -68.7141 196° South 501 577 36,000  Level FlightAware ADS-B (KBGR)
Mon 02:41:40 PM 45.1705 -68.7456 196° South 502 578 36,000  Level FlightAware ADS-B
Mon 02:42:14 PM 45.0959 -68.7749 196° South 503 579 36,000  Level FlightAware ADS-B (WASR / MKW)
Mon 02:42:44 PM 45.0266 -68.8021 196° South 504 580 36,000  Level FlightAware ADS-B (WASR / MKW)
Mon 02:43:21 PM 44.9429 -68.8348 195° South 503 579 36,000  Level FlightAware ADS-B (KBGR)
Mon 02:43:52 PM 44.8885 -68.8562 197° South 499 574 36,000  Level FlightAware ADS-B (KBGR)
Mon 02:44:11 PM 44.8332 -68.8832 204° Southwest 488 562 36,000  Level FlightAware ADS-B
Mon 02:44:14 PM 44.8281 -68.8868 210° Southwest 479 551 36,000  Level FlightAware ADS-B (KBGR)
Mon 02:44:25 PM 44.8067 -68.9046 215° Southwest 472 543 36,000  Level FlightAware ADS-B (WASR / MKW)
Mon 02:44:44 PM 44.7732 -68.9393 216° Southwest 469 540 36,000  Level FlightAware ADS-B
Mon 02:45:19 PM 44.7116 -69.0017 216° Southwest 470 541 36,000  Level FlightAware ADS-B
Mon 02:45:49 PM 44.6597 -69.0538 216° Southwest 469 540 36,000  Level FlightAware ADS-B
Mon 02:46:22 PM 44.6002 -69.1137 216° Southwest 468 539 36,000  Level FlightAware ADS-B (WASR / MKW)
Mon 02:46:52 PM 44.5504 -69.1638 216° Southwest 468 539 36,000  Level FlightAware ADS-B (WASR / MKW)
Mon 02:47:26 PM 44.4892 -69.2252 216° Southwest 469 540 36,000  Level FlightAware ADS-B
Mon 02:47:58 PM 44.4324 -69.2821 216° Southwest 470 541 36,000  Level FlightAware ADS-B (WASR / MKW)
Mon 02:48:28 PM 44.3837 -69.3307 216° Southwest 472 543 36,000  Level FlightAware ADS-B
Mon 02:49:42 PM 44.2533 -69.4604 216° Southwest 474 545 36,000  Level FlightAware ADS-B (KBGR)
Mon 02:50:13 PM 44.1996 -69.5137 215° Southwest 476 548 36,000  Level FlightAware ADS-B (KBGR)
Mon 02:50:55 PM 44.1279 -69.5844 215° Southwest 477 549 36,000  Level FlightAware ADS-B (KBGR)
Mon 02:51:46 PM 44.0256 -69.6851 215° Southwest 476 548 36,000  Level FlightAware ADS-B (KBGR)
Mon 02:52:17 PM 43.9704 -69.7393 215° Southwest 477 549 36,000  Level FlightAware ADS-B (KASH)
Mon 02:52:48 PM 43.9138 -69.7946 216° Southwest 472 543 36,000  Level FlightAware ADS-B (KASH)
Mon 02:53:33 PM 43.8315 -69.8751 216° Southwest 475 547 36,000  Level FlightAware ADS-B (KASH)
Mon 02:53:46 PM 43.8079 -69.8982 216° Southwest 476 548 36,000  Level FlightAware ADS-B (KASH)
Mon 02:54:19 PM 43.7488 -69.9556 216° Southwest 477 549 36,000  Level FlightAware ADS-B (KASH)
Mon 02:54:58 PM 43.6801 -70.0221 215° Southwest 482 555 36,000  Level FlightAware ADS-B (KBOS)
Mon 02:55:29 PM 43.6215 -70.0788 215° Southwest 482 555 36,000  Level FlightAware ADS-B (KBOS)
Mon 02:55:47 PM 43.5865 -70.1126 216° Southwest 475 547 36,000  Level FlightAware ADS-B (KASH)
Mon 02:55:53 PM 43.5765 -70.1224 216° Southwest 475 547 36,000  Level FlightAware ADS-B (KASH)
Mon 02:56:29 PM 43.5206 -70.1763 215° Southwest 481 554 36,000  Level FlightAware ADS-B (KBOS)
Mon 02:56:50 PM 43.4735 -70.2215 216° Southwest 475 547 36,000  Level FlightAware ADS-B (KASH)
Mon 02:57:31 PM 43.4046 -70.2876 215° Southwest 482 555 36,000  Level FlightAware ADS-B (KBOS)
Mon 02:58:01 PM 43.3433 -70.3462 215° Southwest 483 556 36,000  Level FlightAware ADS-B (KBOS)
Mon 02:58:32 PM 43.2878 -70.3991 215° Southwest 484 557 36,000  Level FlightAware ADS-B (KBOS)
Mon 02:59:12 PM 43.2136 -70.4698 215° Southwest 482 555 36,000  Level FlightAware ADS-B (KBOS)
Mon 02:59:47 PM 43.1503 -70.5298 215° Southwest 483 556 36,000  Level FlightAware ADS-B (KBOS)
Mon 03:00:19 PM 43.0901 -70.5868 215° Southwest 476 548 36,000  Level FlightAware ADS-B (KASH)
Mon 03:00:56 PM 43.0256 -70.6478 215° Southwest 483 556 36,000  Level FlightAware ADS-B (KBOS)
Mon 03:01:35 PM 42.9515 -70.7175 215° Southwest 477 549 36,000  Level FlightAware ADS-B (KASH)
Mon 03:02:08 PM 42.8929 -70.7725 215° Southwest 483 556 36,000  Level FlightAware ADS-B (KBOS)
Mon 03:02:38 PM 42.8370 -70.8249 215° Southwest 481 554 36,000  Level FlightAware ADS-B (KBOS)
Mon 03:03:09 PM 42.7796 -70.8786 215° Southwest 482 555 36,000  Level FlightAware ADS-B (KBOS)
Mon 03:03:50 PM 42.7043 -70.9488 214° Southwest 483 556 36,000  Level FlightAware ADS-B (KBOS)
Mon 03:04:35 PM 42.6194 -71.0278 214° Southwest 484 557 36,000  Level FlightAware ADS-B (KASH)
Mon 03:05:06 PM 42.5634 -71.0796 214° Southwest 484 557 36,000  Level FlightAware ADS-B (KASH)
Mon 03:05:37 PM 42.5061 -71.1327 214° Southwest 482 555 36,000  Level FlightAware ADS-B (KBOS)
Mon 03:05:51 PM 42.4805 -71.1562 215° Southwest 476 548 36,000  Level FlightAware ADS-B (KASH)
Mon 03:06:21 PM 42.4255 -71.2070 214° Southwest 483 556 36,000  Level FlightAware ADS-B (KBOS)
Mon 03:06:51 PM 42.3696 -71.2584 214° Southwest 484 557 36,000  Level FlightAware ADS-B (KASH)
Mon 03:07:21 PM 42.3131 -71.3102 214° Southwest 484 557 36,000  Level FlightAware ADS-B (KASH)
Mon 03:08:04 PM 42.2433 -71.3741 214° Southwest 484 557 36,000  Level FlightAware ADS-B (SBBR / BSB)
Mon 03:08:44 PM 42.1628 -71.4475 214° Southwest 483 556 36,000  Level FlightAware ADS-B (SBBR / BSB)
Mon 03:09:16 PM 42.1033 -71.5016 214° Southwest 483 556 36,000  Level FlightAware ADS-B (KBOS)
Mon 03:09:47 PM 42.0445 -71.5550 214° Southwest 482 555 36,000  Level FlightAware ADS-B (KOWD)
Mon 03:10:06 PM 42.0100 -71.5874 216° Southwest 479 551 36,000  Level FlightAware ADS-B (KOWD)
Mon 03:10:37 PM 41.9562 -71.6457 220° Southwest 477 549 36,000  Level FlightAware ADS-B (KASH)
Mon 03:11:08 PM 41.9040 -71.7027 219° Southwest 478 550 36,000  Level FlightAware ADS-B (KASH)
Mon 03:11:41 PM 41.8527 -71.7570 218° Southwest 477 549 36,000  Level FlightAware ADS-B (SBBR / BSB)
Mon 03:12:08 PM 41.7998 -71.8126 218° Southwest 477 549 36,000  Level FlightAware ADS-B (KBOS)
Mon 03:12:45 PM 41.7359 -71.8795 218° Southwest 476 548 36,000  Level FlightAware ADS-B (KSNC)
Mon 03:13:23 PM 41.6699 -71.9485 218° Southwest 475 547 36,000  Level FlightAware ADS-B (KASH)
Mon 03:13:58 PM 41.6118 -72.0089 218° Southwest 476 548 36,000  Level FlightAware ADS-B (SBBR / BSB)
Mon 03:14:33 PM 41.5489 -72.0743 218° Southwest 477 549 36,000  Level FlightAware ADS-B (KSNC)
Mon 03:15:13 PM 41.4809 -72.1445 218° Southwest 477 549 36,000  Level FlightAware ADS-B (SBBR / BSB)
Mon 03:15:53 PM 41.4196 -72.2078 218° Southwest 476 548 36,000  Level FlightAware ADS-B (SBBR / BSB)
Mon 03:16:41 PM 41.3294 -72.3007 218° Southwest 477 549 36,000  Level FlightAware ADS-B (SBBR / BSB)
Mon 03:17:11 PM 41.2747 -72.3569 218° Southwest 477 549 36,000  Level FlightAware ADS-B (SBBR / BSB)
Mon 03:17:42 PM 41.2217 -72.4112 218° Southwest 478 550 36,000  Level FlightAware ADS-B (SBBR / BSB)
Mon 03:18:12 PM 41.1860 -72.4478 218° Southwest 478 550 36,000  Level FlightAware ADS-B (SBBR / BSB)
Mon 03:18:56 PM 41.0933 -72.5424 218° Southwest 477 549 36,000  Level FlightAware ADS-B (KSNC)
Mon 03:19:36 PM 41.0247 -72.6121 218° Southwest 477 549 36,000  Level FlightAware ADS-B (KSNC)
Mon 03:20:15 PM 40.9530 -72.6849 218° Southwest 478 550 36,000  Level FlightAware ADS-B (KSNC)
Mon 03:20:24 PM 40.9373 -72.7008 218° Southwest 478 550 36,000  Level FlightAware ADS-B (SBBR / BSB)
Mon 03:21:04 PM 40.8654 -72.7734 217° Southwest 479 551 36,000  Level FlightAware ADS-B (KSNC)
Mon 03:21:46 PM 40.7958 -72.8435 217° Southwest 477 549 36,000  Level FlightAware ADS-B (KSNC)
Mon 03:22:26 PM 40.7233 -72.9164 217° Southwest 478 550 36,000  Level FlightAware ADS-B (KSNC)
Mon 03:22:57 PM 40.6681 -72.9717 217° Southwest 479 551 36,000  Level FlightAware ADS-B (KSNC)
Mon 03:23:38 PM 40.5970 -73.0428 217° Southwest 480 552 36,000  Level FlightAware ADS-B (KSNC)
Mon 03:24:08 PM 40.5423 -73.0973 217° Southwest 481 554 36,000  Level FlightAware ADS-B (KSNC)
Mon 03:24:49 PM 40.4720 -73.1673 217° Southwest 482 555 36,000  Level FlightAware ADS-B (KSNC)
Mon 03:25:19 PM 40.4163 -73.2226 217° Southwest 483 556 36,000  Level FlightAware ADS-B (KSNC)
Mon 03:26:03 PM 40.3370 -73.3012 217° Southwest 482 555 36,000  Level FlightAware ADS-B (KWWD)
Mon 03:26:38 PM 40.2760 -73.3615 217° Southwest 483 556 36,000  Level FlightAware ADS-B (KSNC)
Mon 03:27:11 PM 40.2182 -73.4183 217° Southwest 483 556 36,000  Level FlightAware ADS-B (KSNC)
Mon 03:27:47 PM 40.1524 -73.4831 217° Southwest 483 556 36,000  Level FlightAware ADS-B (KPHL)
Mon 03:28:18 PM 40.0971 -73.5374 217° Southwest 484 557 36,000  Level FlightAware ADS-B (KPHL)
Mon 03:28:51 PM 40.0382 -73.5950 217° Southwest 486 559 36,000  Level FlightAware ADS-B (KSNC)
Mon 03:29:30 PM 39.9757 -73.6560 217° Southwest 485 558 36,000  Level FlightAware ADS-B (KSNC)
Mon 03:30:09 PM 39.8972 -73.7325 217° Southwest 486 559 36,000  Level FlightAware ADS-B (KSNC)
Mon 03:30:40 PM 39.8457 -73.7825 217° Southwest 486 559 36,000  Level FlightAware ADS-B (KSNC)
Mon 03:31:20 PM 39.8215 -73.8060 217° Southwest 487 560 36,000  Level FlightAware ADS-B (KSNC)
Mon 03:31:52 PM 39.7119 -73.9121 217° Southwest 487 560 36,000  Level FlightAware ADS-B (KWWD)
Mon 03:32:32 PM 39.6433 -73.9782 217° Southwest 487 560 36,000  Level FlightAware ADS-B (KPHL)
Mon 03:33:03 PM 39.5852 -74.0342 217° Southwest 487 560 36,000  Level FlightAware ADS-B (KPHL)
Mon 03:33:33 PM 39.5337 -74.0838 217° Southwest 486 559 36,000  Level FlightAware ADS-B (KPHL)
Mon 03:34:03 PM 39.4763 -74.1387 217° Southwest 485 558 36,000  Level FlightAware ADS-B (KPHL)
Mon 03:34:34 PM 39.4206 -74.1919 217° Southwest 485 558 36,000  Level FlightAware ADS-B (KWWD)
Mon 03:35:11 PM 39.3538 -74.2558 217° Southwest 485 558 36,000  Level FlightAware ADS-B (KWWD)
Mon 03:35:44 PM 39.2934 -74.3133 217° Southwest 480 552 36,000  Level FlightAware ADS-B (KWWD)
Mon 03:36:24 PM 39.2208 -74.3823 217° Southwest 481 554 36,000  Level FlightAware ADS-B (KWWD)
Mon 03:36:44 PM 39.2200 -74.3830 216° Southwest 487 560 36,000  Level FlightAware ADS-B (KPHL)
Mon 03:37:14 PM 39.1317 -74.4666 217° Southwest 481 554 36,000  Level FlightAware ADS-B (KWWD)
Mon 03:38:06 PM 39.0357 -74.5572 216° Southwest 488 562 36,000  Level FlightAware ADS-B (KPHL)
Mon 03:38:41 PM 38.9726 -74.6167 217° Southwest 485 558 36,000  Level FlightAware ADS-B (KWWD)
Mon 03:39:49 PM 38.8489 -74.7327 217° Southwest 484 557 36,000  Level FlightAware ADS-B (KWWD)
Mon 03:40:35 PM 38.7638 -74.8122 217° Southwest 484 557 36,000  Level FlightAware ADS-B (KWWD)
Mon 03:41:05 PM 38.7080 -74.8642 217° Southwest 482 555 36,000  Level FlightAware ADS-B (KWWD)
Mon 03:41:35 PM 38.7525 -74.8227 216° Southwest 489 563 36,000  Level FlightAware ADS-B
Mon 03:45:31 PM 38.2487 -75.2885 216° Southwest 492 566 36,000  Level FlightAware ADS-B
Mon 03:46:01 PM 38.1872 -75.3448 216° Southwest 494 568 36,000  Level FlightAware ADS-B
Mon 03:46:34 PM 38.1260 -75.4008 216° Southwest 494 568 36,000  Level FlightAware ADS-B
Mon 03:47:06 PM 38.0422 -75.4745 211° Southwest 491 565 36,000  Level FlightAware ADS-B (KWWD)
Mon 03:47:38 PM 37.9810 -75.5197 211° Southwest 499 574 36,000  Level FlightAware ADS-B
Mon 03:48:13 PM 37.9126 -75.5727 211° Southwest 499 574 36,000  Level FlightAware ADS-B
Mon 03:48:57 PM 37.8230 -75.6409 211° Southwest 493 567 36,000  Level FlightAware ADS-B (KWWD)
Mon 03:49:36 PM 37.7454 -75.6993 211° Southwest 494 568 36,000  Level FlightAware ADS-B (KWWD)
Mon 03:50:07 PM 37.6859 -75.7441 211° Southwest 494 568 36,000  Level FlightAware ADS-B (KWWD)
Mon 03:50:45 PM 37.6090 -75.8018 211° Southwest 502 578 36,000  Level FlightAware ADS-B (KWWD)
Mon 03:51:27 PM 37.5224 -75.8625 206° Southwest 499 574 36,000  Level FlightAware ADS-B (KWWD)
Mon 03:52:16 PM 37.4220 -75.9161 205° Southwest 499 574 36,000  Level FlightAware ADS-B (KWWD)
Mon 03:53:04 PM 37.3125 -75.9768 203° Southwest 506 582 36,000  Level FlightAware ADS-B (KWWD)
Mon 03:53:36 PM 37.2450 -76.0129 203° Southwest 506 582 36,000  Level FlightAware ADS-B (KWWD)
Mon 03:54:10 PM 37.1721 -76.0518 203° Southwest 505 581 36,000  Level FlightAware ADS-B (KWWD)
Mon 03:56:45 PM 36.8447 -76.2418 207° Southwest 502 578 36,000  Level FlightAware ADS-B (KWWD)
Mon 03:57:16 PM 36.7885 -76.2923 214° Southwest 492 566 36,000  Level FlightAware ADS-B (KWWD)
Mon 03:59:42 PM 36.4777 -76.4402 200° South 496 571 36,000  Level FlightAware ADS-B (KWWD)
Mon 04:00:22 PM 36.4011 -76.4772 200° South 506 582 36,000  Level Washington Center
Mon 04:01:23 PM 36.2692 -76.5322 199° South 506 582 36,000  Level Washington Center
Mon 04:02:24 PM 36.1372 -76.5925 200° South 506 582 36,000  Level Washington Center
Mon 04:03:25 PM 36.0053 -76.6525 200° South 506 582 36,000  Level Washington Center
Mon 04:04:22 PM 35.8711 -76.7097 199° South 511 588 36,000  Level Washington Center
Mon 04:05:23 PM 35.7392 -76.7717 201° Southwest 506 582 36,000  Level Washington Center
Mon 04:06:24 PM 35.5989 -76.8361 200° South 499 574 36,000  Level Washington Center
Mon 04:07:22 PM 35.4625 -76.8925 199° South 494 568 36,000  Level Washington Center
Mon 04:08:23 PM 35.3306 -76.9517 200° South 505 581 36,000  Level Washington Center
Mon 04:09:23 PM 35.2006 -77.0078 199° South 505 581 36,000  Level Washington Center
Mon 04:10:24 PM 35.0767 -77.0667 201° Southwest 512 589 36,000  Level Washington Center
Mon 04:11:22 PM 34.9297 -77.1272 199° South 507 583 36,000  Level Washington Center
Mon 04:12:23 PM 34.8122 -77.1833 201° Southwest 507 583 36,000  Level Washington Center
Mon 04:13:23 PM 34.6758 -77.2436 200° South 512 589 36,000  Level Washington Center
Mon 04:14:23 PM 34.5414 -77.3014 199° South 512 589 36,000  Level Washington Center
Mon 04:15:25 PM 34.4050 -77.3592 199° South 512 589 36,000  Level Washington Center
Mon 04:16:22 PM 34.2686 -77.4164 199° South 512 589 36,000  Level Washington Center
Mon 04:17:23 PM 34.1361 -77.4714 199° South 512 589 36,000  Level Washington Center
Mon 04:18:40 PM 33.9608 -77.5422 199° South 503 579 36,000  Level Jacksonville Center
Mon 04:19:40 PM 33.8256 -77.6006 200° South 510 587 36,000  Level Jacksonville Center
Mon 04:20:40 PM 33.6922 -77.6583 200° South 515 593 36,000  Level Jacksonville Center
Mon 04:21:40 PM 33.5428 -77.7244 200° South 524 603 36,000  Level Jacksonville Center
Mon 04:22:40 PM 33.4072 -77.7797 199° South 518 596 36,000  Level Jacksonville Center
Mon 04:23:40 PM 33.2739 -77.8369 200° South 518 596 36,000  Level Jacksonville Center
Mon 04:24:40 PM 33.1406 -77.8942 200° South 518 596 36,000  Level Jacksonville Center
Mon 04:25:40 PM 33.0053 -77.9514 200° South 518 596 36,000  Level Jacksonville Center
Mon 04:26:40 PM 32.8717 -78.0056 199° South 518 596 36,000  Level Jacksonville Center
Mon 04:27:40 PM 32.7381 -78.0597 199° South 518 596 36,000  Level Jacksonville Center
Mon 04:28:40 PM 32.6044 -78.1136 199° South 518 596 36,000  Level Jacksonville Center
Mon 04:29:40 PM 32.4708 -78.1675 199° South 513 590 36,000  Level Jacksonville Center
Mon 04:30:40 PM 32.3639 -78.2075 198° South 513 590 36,000  Level Jacksonville Center
Mon 04:31:40 PM 32.2222 -78.2736 202° Southwest 508 585 36,000  Level Jacksonville Center
Mon 04:32:40 PM 32.0886 -78.3294 199° South 513 590 36,000  Level Jacksonville Center
Mon 04:33:40 PM 31.9611 -78.3822 199° South 503 579 36,000  Level Jacksonville Center
Mon 04:34:40 PM 31.8272 -78.4353 199° South 503 579 36,000  Level Jacksonville Center
Mon 04:35:40 PM 31.6956 -78.4928 200° South 503 579 36,000  Level Jacksonville Center
Mon 04:36:40 PM 31.5617 -78.5431 198° South 503 579 36,000  Level Jacksonville Center
Mon 04:37:40 PM 31.4319 -78.5956 199° South 497 572 36,000  Level Jacksonville Center
Mon 04:38:40 PM 31.3022 -78.6475 199° South 497 572 36,000  Level Jacksonville Center
Mon 04:39:40 PM 31.1703 -78.6972 198° South 502 578 36,000  Level Jacksonville Center
Mon 04:40:40 PM 31.0386 -78.7539 200° South 496 571 36,000  Level Jacksonville Center
Mon 04:41:40 PM 30.8900 -78.8089 198° South 501 577 36,000  Level Jacksonville Center
Mon 04:44:00 PM 30.6072 -78.9228 199° South 499 574 36,000  Level Miami Center
Mon 04:45:02 PM 30.4478 -78.9847 199° South 500 575 36,000  Level Miami Center
Mon 04:46:04 PM 30.3164 -79.0417 201° Southwest 501 577 36,000  Level Miami Center
Mon 04:47:06 PM 30.1836 -79.1008 201° Southwest 507 583 36,000  Level Miami Center
Mon 04:48:09 PM 30.0494 -79.1583 200° South 511 588 36,000  Level Miami Center
Mon 04:49:11 PM 29.9169 -79.2156 201° Southwest 512 589 36,000  Level Miami Center
Mon 04:50:13 PM 29.7836 -79.2736 201° Southwest 513 590 36,000  Level Miami Center
Mon 04:56:10 PM 28.9575 -79.5910 190° South 518 596 36,000  Level FlightAware ADS-B
Mon 04:57:28 PM 28.7612 -79.6280 189° South 515 593 36,000  Level FlightAware ADS-B
Mon 04:58:27 PM 28.6225 -79.6529 189° South 514 592 36,000  Level FlightAware ADS-B
Mon 04:59:50 PM 28.4266 -79.6880 189° South 512 589 36,000  Level FlightAware ADS-B
Mon 05:01:10 PM 28.2391 -79.7214 189° South 513 590 36,000  Level FlightAware ADS-B
Mon 05:01:53 PM 28.1498 -79.7474 206° Southwest 498 573 36,000  Level FlightAware ADS-B
Mon 05:02:32 PM 28.0661 -79.7971 208° Southwest 496 571 36,000  Level FlightAware ADS-B
Mon 05:03:36 PM 27.9339 -79.8745 207° Southwest 499 574 36,000  Level FlightAware ADS-B
Mon 05:04:21 PM 27.8448 -79.9264 207° Southwest 500 575 36,000  Level FlightAware ADS-B
Mon 05:04:59 PM 27.7753 -79.9668 207° Southwest 498 573 36,000  Level FlightAware ADS-B (RJTF)
Mon 05:06:09 PM 27.6275 -80.0527 207° Southwest 497 572 36,000  Level FlightAware ADS-B
Mon 05:06:49 PM 27.5392 -80.1039 207° Southwest 494 568 36,000  Level FlightAware ADS-B
Mon 05:07:45 PM 27.4284 -80.1680 207° Southwest 498 573 36,000  Level FlightAware ADS-B (RJTF)
Mon 05:08:17 PM 27.3657 -80.2042 207° Southwest 493 567 36,000  Level FlightAware ADS-B
Mon 05:09:00 PM 27.2899 -80.2480 207° Southwest 495 570 36,000  Level FlightAware ADS-B (RJTF)
Mon 05:09:30 PM 27.2326 -80.2809 207° Southwest 495 570 36,000  Level FlightAware ADS-B (RJTF)
Mon 05:10:25 PM 27.1022 -80.3559 207° Southwest 494 568 36,000  Level FlightAware ADS-B
Mon 05:10:59 PM 27.0406 -80.3913 207° Southwest 494 568 36,000  Level FlightAware ADS-B (RJTF)
Mon 05:11:30 PM 26.9783 -80.4270 207° Southwest 491 565 36,000  Level FlightAware ADS-B (RJTF)
Mon 05:12:09 PM 26.8882 -80.4785 207° Southwest 490 564 36,000  Level FlightAware ADS-B
Mon 05:12:45 PM 26.8179 -80.5186 207° Southwest 490 564 36,000  Level FlightAware ADS-B (RJTF)
Mon 05:13:29 PM 26.7330 -80.5671 207° Southwest 491 565 36,000  Level FlightAware ADS-B (RJTF)
Mon 05:14:00 PM 26.6673 -80.6046 207° Southwest 492 566 36,000  Level FlightAware ADS-B (RJTF)
Mon 05:14:42 PM 26.5902 -80.6484 207° Southwest 492 566 36,000  Level FlightAware ADS-B
Mon 05:15:15 PM 26.5184 -80.6891 207° Southwest 491 565 36,000  Level FlightAware ADS-B (RJTF)
Mon 05:15:59 PM 26.4242 -80.7426 207° Southwest 491 565 36,000  Level FlightAware ADS-B (RJTF)
Mon 05:16:30 PM 26.3668 -80.7751 207° Southwest 490 564 36,000  Level FlightAware ADS-B (RJTF)
Mon 05:17:00 PM 26.3062 -80.8136 214° Southwest 485 558 36,000  Level FlightAware ADS-B (RJTF)
Mon 05:17:30 PM 26.2481 -80.8579 214° Southwest 486 559 36,000  Level FlightAware ADS-B (RJTF)
Mon 05:18:00 PM 26.2397 -80.8642 214° Southwest 486 559 36,000  Level FlightAware ADS-B (RJTF)
Mon 05:18:30 PM 26.1524 -80.9302 214° Southwest 487 560 36,000  Level FlightAware ADS-B (RJTF)
Mon 05:19:14 PM 26.0722 -80.9914 214° Southwest 483 556 36,000  Level Miami Center
Mon 05:24:43 PM 25.5261 -81.5128 189° South 485 558 36,000  Level FlightAware ADS-B
Mon 05:25:24 PM 25.4256 -81.5149 169° South 483 556 36,000 -225 Level FlightAware ADS-B
Mon 05:26:03 PM 25.3267 -81.4940 169° South 481 554 35,700 -577 Descending FlightAware ADS-B
Mon 05:27:08 PM 25.1911 -81.4655 169° South 476 548 35,000 -795 Descending FlightAware ADS-B
Mon 05:28:34 PM 25.0192 -81.4294 169° South 476 548 33,700 -932 Descending Miami Center
Mon 05:29:36 PM 24.8928 -81.4031 169° South 468 539 32,700 -919 Descending Miami Center
Mon 05:30:38 PM 24.7661 -81.3764 169° South 467 537 31,800 -1,016 Descending Miami Center
Mon 05:31:40 PM 24.6136 -81.3442 169° South 466 536 30,600 -1,200 Descending Miami Center
Mon 05:32:43 PM 24.4856 -81.3217 171° South 466 536 29,300 -1,440 Descending Miami Center
Mon 05:33:45 PM 24.3719 -81.3750 203° Southwest 444 511 27,600 -1,548 Descending Miami Center
Mon 05:34:47 PM 24.2722 -81.4444 212° Southwest 429 494 26,100 -1,548 Descending Miami Center
Mon 05:35:49 PM 24.1758 -81.5106 212° Southwest 414 476 24,400 -1,790 Descending Miami Center
Mon 05:36:51 PM 24.0619 -81.5875 212° Southwest 405 466 22,400 -1,935 Descending Miami Center
Mon 05:38:00 PM 23.9445 -81.6783 215° Southwest  Level Estimated
Mon 05:45:00 PM 23.2281 -82.2275 215° Southwest  Level Estimated
Mon 05:46:00 PM 23.1257 -82.3055 241° Southwest  Level Estimated
Mon 05:47:00 PM 23.0231 -82.3833 223° Southwest  Level Estimated
Mon 05:48:00 PM 22.9891 -82.4091 223° Southwest  Level Estimated
Mon 05:49:00 PM 22.9891 -82.4091 223° Southwest  Level Estimated
Mon 05:50:00 PM 22.9891 -82.4091 223° Southwest  Level Estimated

Login

Don't have an account? Register now (free) for customized features, flight alerts, and more!